createdAt,value
2022-07-29T00:01:45.022Z,1.33
2022-07-29T00:04:12.061Z,1.45
2022-07-29T00:06:38.812Z,1.42
2022-07-29T00:09:05.548Z,1.10
2022-07-29T00:11:32.118Z,1.45
2022-07-29T00:13:58.667Z,1.42
2022-07-29T00:16:25.482Z,1.30
2022-07-29T00:18:52.052Z,1.70
2022-07-29T00:21:18.646Z,1.50
2022-07-29T00:23:45.208Z,1.40
2022-07-29T00:26:11.777Z,1.70
2022-07-29T00:28:38.443Z,1.48
2022-07-29T00:31:05.339Z,1.35
2022-07-29T00:33:31.951Z,1.20
2022-07-29T00:35:58.541Z,1.20
2022-07-29T00:38:25.260Z,1.40
2022-07-29T00:40:51.890Z,1.13
2022-07-29T00:43:19.007Z,1.45
2022-07-29T00:45:45.835Z,1.38
2022-07-29T00:48:12.382Z,1.30
2022-07-29T00:50:39.210Z,1.40
2022-07-29T00:53:07.729Z,1.35
2022-07-29T00:55:34.349Z,1.38
2022-07-29T00:58:01.358Z,1.50
2022-07-29T01:00:28.913Z,1.15
2022-07-29T01:02:55.638Z,1.70
2022-07-29T01:05:23.079Z,1.42
2022-07-29T01:07:52.270Z,1.70
2022-07-29T01:10:19.617Z,1.40
2022-07-29T01:12:47.470Z,1.30
2022-07-29T01:15:14.075Z,1.45
2022-07-29T01:17:52.717Z,2.17
2022-07-29T01:20:20.367Z,1.27
2022-07-29T01:23:09.544Z,1.65
2022-07-29T01:25:56.155Z,1.65
2022-07-29T01:28:38.878Z,1.90
2022-07-29T01:31:06.303Z,2.15
2022-07-29T01:33:50.523Z,1.60
2022-07-29T01:36:36.182Z,1.15
2022-07-29T01:39:15.403Z,1.55
2022-07-29T01:41:48.972Z,1.48
2022-07-29T01:44:27.795Z,1.45
2022-07-29T01:46:55.474Z,1.63
2022-07-29T01:49:25.181Z,1.42
2022-07-29T01:51:54.516Z,1.40
2022-07-29T01:54:26.008Z,1.48
2022-07-29T01:56:54.389Z,1.60
2022-07-29T01:59:21.557Z,2.15
2022-07-29T02:01:49.521Z,2.05
2022-07-29T02:04:29.364Z,2.40
2022-07-29T02:06:59.678Z,1.90
2022-07-29T02:09:26.741Z,2.55
2022-07-29T02:11:54.374Z,2.40
2022-07-29T02:14:22.107Z,1.92
2022-07-29T02:16:50.738Z,1.98
2022-07-29T02:19:18.944Z,2.38
2022-07-29T02:21:46.503Z,2.00
2022-07-29T02:24:13.997Z,1.88
2022-07-29T02:26:42.660Z,1.85
2022-07-29T02:29:09.796Z,1.40
2022-07-29T02:31:37.491Z,1.95
2022-07-29T02:34:05.870Z,2.08
2022-07-29T02:36:33.019Z,2.00
2022-07-29T02:39:01.627Z,1.85
2022-07-29T02:41:38.219Z,1.30
2022-07-29T02:44:07.557Z,1.90
2022-07-29T02:46:35.634Z,1.65
2022-07-29T02:49:09.982Z,1.58
2022-07-29T02:51:47.181Z,1.30
2022-07-29T02:54:21.402Z,1.90
2022-07-29T02:57:01.137Z,1.65
2022-07-29T02:59:28.941Z,2.38
2022-07-29T03:01:56.312Z,2.30
2022-07-29T03:04:23.717Z,2.40
2022-07-29T03:06:51.506Z,2.33
2022-07-29T03:09:18.235Z,2.45
2022-07-29T03:11:50.547Z,2.60
2022-07-29T03:14:18.562Z,2.58
2022-07-29T03:16:45.887Z,2.70
2022-07-29T03:19:12.598Z,2.10
2022-07-29T03:21:39.606Z,1.90
2022-07-29T03:24:10.240Z,2.13
2022-07-29T03:26:37.212Z,2.00
2022-07-29T03:29:05.114Z,2.00
2022-07-29T03:31:33.545Z,2.30
2022-07-29T03:34:00.256Z,2.80
2022-07-29T03:36:27.360Z,3.03
2022-07-29T03:38:54.168Z,2.65
2022-07-29T03:41:22.527Z,2.30
2022-07-29T03:43:50.659Z,2.92
2022-07-29T03:46:18.402Z,3.42
2022-07-29T03:48:47.955Z,2.60
2022-07-29T03:51:14.538Z,3.22
2022-07-29T03:53:41.338Z,3.40
2022-07-29T03:56:09.681Z,3.70
2022-07-29T03:58:36.418Z,3.03
2022-07-29T04:01:03.257Z,3.20
2022-07-29T04:03:30.587Z,3.55
2022-07-29T04:06:01.350Z,3.40
2022-07-29T04:08:27.967Z,3.53
2022-07-29T04:10:55.559Z,3.85
2022-07-29T04:13:22.066Z,4.38
2022-07-29T04:15:55.988Z,4.63
2022-07-29T04:18:22.558Z,4.45
2022-07-29T04:20:49.075Z,3.53
2022-07-29T04:23:15.678Z,3.70
2022-07-29T04:25:42.754Z,3.70
2022-07-29T04:28:10.027Z,5.25
2022-07-29T04:30:37.055Z,4.68
2022-07-29T04:33:04.718Z,4.20
2022-07-29T04:35:38.101Z,3.97
2022-07-29T04:38:06.011Z,4.15
2022-07-29T04:40:34.018Z,5.57
2022-07-29T04:43:01.801Z,6.15
2022-07-29T04:45:32.257Z,4.93
2022-07-29T04:47:58.768Z,5.07
2022-07-29T04:50:25.323Z,5.80
2022-07-29T04:52:51.828Z,6.90
2022-07-29T04:55:18.353Z,7.95
2022-07-29T04:57:44.895Z,6.15
2022-07-29T05:00:11.709Z,6.28
2022-07-29T05:02:39.171Z,6.80
2022-07-29T05:05:05.933Z,5.90
2022-07-29T05:07:32.561Z,6.22
2022-07-29T05:09:59.118Z,7.70
2022-07-29T05:12:25.945Z,8.10
2022-07-29T05:14:52.802Z,9.82
2022-07-29T05:17:19.523Z,8.95
2022-07-29T05:19:47.826Z,6.18
2022-07-29T05:22:14.650Z,8.18
2022-07-29T05:24:41.752Z,6.03
2022-07-29T05:27:08.267Z,7.13
2022-07-29T05:29:43.664Z,6.97
2022-07-29T05:32:12.823Z,5.50
2022-07-29T05:34:50.353Z,5.75
2022-07-29T05:37:18.665Z,6.82
2022-07-29T05:39:47.500Z,7.40
2022-07-29T05:42:15.869Z,5.85
2022-07-29T05:44:42.478Z,6.35
2022-07-29T05:47:09.001Z,6.47
2022-07-29T05:49:37.733Z,7.20
2022-07-29T05:52:04.597Z,7.10
2022-07-29T05:54:32.750Z,6.03
2022-07-29T05:56:59.462Z,6.05
2022-07-29T05:59:30.175Z,5.60
2022-07-29T06:01:58.578Z,6.18
2022-07-29T06:04:25.273Z,6.22
2022-07-29T06:06:51.981Z,4.72
2022-07-29T06:09:18.533Z,5.07
2022-07-29T06:11:45.730Z,5.75
2022-07-29T06:14:12.375Z,6.15
2022-07-29T06:16:40.202Z,5.78
2022-07-29T06:19:06.821Z,6.47
2022-07-29T06:21:34.548Z,7.18
2022-07-29T06:24:05.337Z,5.85
2022-07-29T06:26:35.228Z,5.45
2022-07-29T06:29:05.913Z,5.82
2022-07-29T06:31:32.574Z,5.50
2022-07-29T06:33:59.330Z,5.38
2022-07-29T06:36:26.248Z,4.90
2022-07-29T06:38:52.773Z,5.68
2022-07-29T06:41:20.326Z,6.10
2022-07-29T06:43:51.854Z,4.63
2022-07-29T06:46:21.469Z,4.47
2022-07-29T06:48:49.929Z,5.05
2022-07-29T06:51:17.312Z,4.20
2022-07-29T06:53:59.737Z,5.05
2022-07-29T06:56:38.393Z,3.95
2022-07-29T06:59:07.473Z,5.35
2022-07-29T07:01:34.115Z,5.10
2022-07-29T07:04:00.724Z,5.13
2022-07-29T07:06:27.490Z,5.45
2022-07-29T07:08:54.756Z,4.53
2022-07-29T07:11:21.554Z,4.60
2022-07-29T07:13:48.146Z,5.55
2022-07-29T07:16:15.209Z,4.80
2022-07-29T07:18:43.350Z,5.32
2022-07-29T07:21:10.157Z,4.97
2022-07-29T07:23:36.626Z,5.95
2022-07-29T07:26:05.132Z,6.25
2022-07-29T07:28:31.739Z,6.43
2022-07-29T07:30:58.691Z,6.47
2022-07-29T07:33:25.701Z,6.55
2022-07-29T07:35:52.235Z,7.20
2022-07-29T07:38:18.741Z,8.27
2022-07-29T07:40:47.349Z,8.27
2022-07-29T07:43:14.107Z,7.80
2022-07-29T07:45:41.154Z,7.43
2022-07-29T07:48:07.908Z,8.07
2022-07-29T07:50:34.817Z,8.90
2022-07-29T07:53:03.220Z,8.82
2022-07-29T07:55:42.450Z,6.95
2022-07-29T07:58:16.319Z,8.93
2022-07-29T08:00:42.930Z,10.93
2022-07-29T08:03:16.812Z,16.10
2022-07-29T08:05:44.244Z,17.20
2022-07-29T08:08:10.820Z,13.18
2022-07-29T08:11:15.563Z,11.25
2022-07-29T08:13:42.184Z,11.32
2022-07-29T08:16:16.179Z,11.82
2022-07-29T08:18:43.716Z,11.70
2022-07-29T08:21:10.359Z,10.05
2022-07-29T08:23:46.131Z,10.93
2022-07-29T08:26:15.178Z,11.07
2022-07-29T08:28:45.711Z,9.68
2022-07-29T08:31:12.918Z,9.93
2022-07-29T08:33:42.046Z,9.30
2022-07-29T08:36:08.748Z,9.15
2022-07-29T08:38:38.055Z,9.98
2022-07-29T08:41:04.597Z,12.52
2022-07-29T08:43:31.305Z,14.25
2022-07-29T08:45:57.868Z,13.32
2022-07-29T08:48:24.855Z,13.90
2022-07-29T08:50:55.145Z,10.48
2022-07-29T08:53:22.097Z,15.80
2022-07-29T08:55:50.920Z,11.52
2022-07-29T08:58:17.895Z,12.00
2022-07-29T09:00:55.279Z,9.70
2022-07-29T09:03:24.039Z,9.13
2022-07-29T09:05:51.132Z,11.15
2022-07-29T09:08:18.063Z,8.88
2022-07-29T09:10:45.015Z,9.73
2022-07-29T09:13:11.558Z,7.95
2022-07-29T09:15:41.147Z,8.68
2022-07-29T09:18:07.867Z,8.73
2022-07-29T09:21:11.064Z,8.40
2022-07-29T09:23:37.724Z,7.90
2022-07-29T09:26:06.198Z,8.57
2022-07-29T09:28:32.767Z,8.30
2022-07-29T09:30:59.476Z,8.00
2022-07-29T09:33:32.681Z,6.60
2022-07-29T09:36:01.091Z,7.53
2022-07-29T09:38:28.489Z,5.95
2022-07-29T09:40:59.984Z,6.63
2022-07-29T09:43:35.230Z,7.32
2022-07-29T09:46:14.718Z,6.80
2022-07-29T09:48:41.312Z,7.47
2022-07-29T09:51:20.700Z,7.25
2022-07-29T09:53:49.056Z,7.97
2022-07-29T09:56:16.192Z,8.77
2022-07-29T09:58:42.716Z,7.90
2022-07-29T10:01:09.263Z,8.70
2022-07-29T10:03:52.953Z,7.50
2022-07-29T10:06:19.528Z,7.57
2022-07-29T10:08:46.016Z,7.65
2022-07-29T10:11:13.775Z,7.00
2022-07-29T10:13:41.221Z,7.70
2022-07-29T10:16:07.874Z,7.10
2022-07-29T10:18:34.754Z,7.38
2022-07-29T10:21:02.172Z,8.25
2022-07-29T10:23:29.545Z,7.93
2022-07-29T10:26:13.463Z,6.15
2022-07-29T10:28:40.011Z,6.53
2022-07-29T10:31:07.417Z,6.03
2022-07-29T10:33:38.354Z,6.20
2022-07-29T10:36:24.547Z,5.43
2022-07-29T10:39:00.286Z,6.55
2022-07-29T10:41:32.322Z,5.20
2022-07-29T10:44:11.363Z,5.95
2022-07-29T10:46:44.142Z,3.83
2022-07-29T10:49:15.239Z,4.43
2022-07-29T10:51:51.311Z,4.70
2022-07-29T10:54:18.778Z,5.53
2022-07-29T10:56:45.571Z,6.97
2022-07-29T10:59:20.496Z,5.45
2022-07-29T11:01:53.575Z,4.65
2022-07-29T11:04:39.677Z,7.18
2022-07-29T11:07:06.374Z,4.57
2022-07-29T11:09:37.431Z,5.80
2022-07-29T11:12:25.404Z,5.90
2022-07-29T11:14:53.373Z,5.28
2022-07-29T11:17:20.024Z,5.93
2022-07-29T11:19:51.975Z,4.45
2022-07-29T11:22:34.005Z,3.38
2022-07-29T11:25:14.150Z,3.88
2022-07-29T11:27:43.990Z,4.95
2022-07-29T11:33:00.128Z,4.28
2022-07-29T11:35:37.998Z,2.97
2022-07-29T11:38:27.843Z,2.92
2022-07-29T11:41:13.816Z,3.38
2022-07-29T11:43:54.878Z,4.10
2022-07-29T11:46:42.759Z,2.53
2022-07-29T11:49:11.310Z,3.67
2022-07-29T11:51:48.248Z,3.05
2022-07-29T11:54:19.086Z,2.83
2022-07-29T11:56:54.924Z,2.83
2022-07-29T11:59:22.208Z,2.45
2022-07-29T12:02:18.375Z,3.22
2022-07-29T12:04:53.323Z,2.17
2022-07-29T12:07:01.470Z,3.25
2022-07-29T12:07:34.656Z,3.00
2022-07-29T12:10:03.041Z,2.15
2022-07-29T12:12:33.602Z,2.25
2022-07-29T12:15:22.394Z,3.75
2022-07-29T12:17:49.625Z,2.60
2022-07-29T12:20:27.150Z,2.22
2022-07-29T12:22:58.119Z,3.20
2022-07-29T12:25:33.721Z,3.13
2022-07-29T12:28:05.950Z,3.80
2022-07-29T12:30:39.976Z,5.72
2022-07-29T12:33:14.445Z,4.45
2022-07-29T12:35:43.750Z,4.38
2022-07-29T12:38:12.802Z,4.75
2022-07-29T12:40:39.520Z,4.35
2022-07-29T12:43:13.473Z,3.78
2022-07-29T12:45:41.498Z,4.30
2022-07-29T12:48:09.758Z,3.95
2022-07-29T12:50:57.077Z,3.28
2022-07-29T12:53:23.815Z,4.20
2022-07-29T12:55:55.401Z,3.45
2022-07-29T12:58:40.293Z,4.20
2022-07-29T13:01:17.597Z,3.45
2022-07-29T13:03:57.470Z,4.95
2022-07-29T13:06:34.021Z,5.07
2022-07-29T13:09:23.107Z,4.90
2022-07-29T13:11:51.614Z,4.47
2022-07-29T13:14:38.025Z,4.50
2022-07-29T13:17:06.291Z,4.78
2022-07-29T13:19:40.250Z,4.25
2022-07-29T13:22:07.881Z,3.53
2022-07-29T13:24:34.790Z,3.45
2022-07-29T13:27:05.747Z,3.20
2022-07-29T13:29:32.556Z,3.45
2022-07-29T13:31:59.487Z,3.95
2022-07-29T13:34:27.283Z,3.83
2022-07-29T13:36:54.460Z,3.55
2022-07-29T13:39:22.447Z,3.72
2022-07-29T13:41:49.244Z,4.38
2022-07-29T13:44:16.007Z,3.40
2022-07-29T13:46:44.265Z,3.55
2022-07-29T13:49:13.301Z,3.33
2022-07-29T13:51:42.445Z,3.38
2022-07-29T13:54:09.605Z,3.80
2022-07-29T13:56:37.275Z,3.80
2022-07-29T13:59:06.208Z,2.90
2022-07-29T14:01:35.215Z,3.50
2022-07-29T14:04:02.096Z,3.50
2022-07-29T14:06:28.740Z,3.13
2022-07-29T14:08:57.931Z,3.53
2022-07-29T14:11:25.267Z,3.80
2022-07-29T14:13:52.132Z,3.78
2022-07-29T14:16:20.129Z,4.32
2022-07-29T14:18:49.095Z,3.50
2022-07-29T14:21:16.282Z,3.30
2022-07-29T14:23:43.765Z,3.53
2022-07-29T14:26:14.009Z,3.67
2022-07-29T14:28:44.880Z,3.50
2022-07-29T14:31:12.620Z,2.97
2022-07-29T14:33:41.633Z,2.90
2022-07-29T14:36:12.241Z,2.75
2022-07-29T14:38:40.025Z,2.90
2022-07-29T14:41:07.023Z,2.78
2022-07-29T14:43:34.218Z,3.70
2022-07-29T14:46:05.179Z,4.88
2022-07-29T14:48:34.591Z,5.28
2022-07-29T14:51:04.880Z,4.80
2022-07-29T14:53:34.342Z,4.40
2022-07-29T14:56:15.271Z,4.25
2022-07-29T14:58:49.161Z,3.45
2022-07-29T15:01:18.814Z,3.75
2022-07-29T15:03:45.347Z,3.00
2022-07-29T15:06:12.287Z,3.00
2022-07-29T15:08:39.009Z,3.55
2022-07-29T15:11:05.551Z,3.28
2022-07-29T15:13:32.018Z,4.07
2022-07-29T15:16:01.316Z,3.67
2022-07-29T15:18:27.816Z,3.17
2022-07-29T15:20:54.420Z,3.78
2022-07-29T15:23:32.589Z,3.25
2022-07-29T15:25:59.752Z,3.53
2022-07-29T15:28:26.310Z,3.75
2022-07-29T15:30:53.852Z,3.75
2022-07-29T15:33:21.256Z,3.40
2022-07-29T15:35:47.778Z,3.80
2022-07-29T15:38:14.372Z,4.03
2022-07-29T15:40:42.170Z,3.50
2022-07-29T15:43:08.726Z,3.10
2022-07-29T15:45:40.748Z,3.05
2022-07-29T15:48:08.345Z,3.20
2022-07-29T15:50:37.367Z,3.38
2022-07-29T15:53:04.305Z,3.15
2022-07-29T15:55:30.855Z,3.20
2022-07-29T15:58:00.747Z,3.28
2022-07-29T16:00:28.037Z,2.90
2022-07-29T16:02:54.975Z,3.28
2022-07-29T16:05:23.738Z,2.97
2022-07-29T16:07:50.299Z,3.20
2022-07-29T16:10:16.872Z,2.97
2022-07-29T16:12:43.447Z,2.80
2022-07-29T16:15:19.828Z,2.45
2022-07-29T16:17:48.170Z,2.78
2022-07-29T16:20:14.835Z,2.60
2022-07-29T16:22:41.754Z,3.50
2022-07-29T16:25:09.269Z,2.90
2022-07-29T16:27:38.304Z,3.30
2022-07-29T16:30:08.310Z,4.50
2022-07-29T16:32:36.237Z,4.82
2022-07-29T16:35:05.072Z,3.10
2022-07-29T16:37:37.327Z,2.70
2022-07-29T16:40:11.608Z,2.70
2022-07-29T16:42:47.169Z,2.75
2022-07-29T16:45:14.655Z,3.20
2022-07-29T16:47:41.594Z,2.58
2022-07-29T16:50:11.428Z,2.97
2022-07-29T16:52:38.416Z,2.83
2022-07-29T16:55:05.820Z,2.50
2022-07-29T16:57:33.770Z,2.63
2022-07-29T17:00:02.218Z,2.55
2022-07-29T17:02:29.874Z,2.60
2022-07-29T17:05:02.728Z,2.30
2022-07-29T17:07:30.947Z,2.05
2022-07-29T17:10:03.305Z,2.92
2022-07-29T17:12:33.669Z,2.10
2022-07-29T17:15:03.040Z,2.20
2022-07-29T17:17:39.231Z,1.95
2022-07-29T17:20:21.080Z,2.25
2022-07-29T17:22:48.055Z,2.40
2022-07-29T17:25:20.988Z,2.40
2022-07-29T17:27:49.525Z,2.28
2022-07-29T17:30:18.795Z,2.58
2022-07-29T17:32:46.012Z,2.33
2022-07-29T17:35:31.387Z,2.40
2022-07-29T17:37:58.009Z,2.33
2022-07-29T17:40:24.740Z,2.75
2022-07-29T17:42:53.551Z,2.78
2022-07-29T17:45:20.208Z,2.55
2022-07-29T17:47:49.675Z,2.70
2022-07-29T17:50:16.466Z,2.58
2022-07-29T17:52:43.194Z,2.83
2022-07-29T17:55:13.638Z,2.80
2022-07-29T17:57:42.897Z,2.45
2022-07-29T18:00:12.141Z,2.28
2022-07-29T18:02:40.797Z,2.80
2022-07-29T18:05:07.784Z,2.20
2022-07-29T18:07:34.361Z,2.60
2022-07-29T18:10:01.035Z,2.45
2022-07-29T18:12:30.899Z,2.40
2022-07-29T18:14:57.635Z,2.22
2022-07-29T18:17:48.446Z,2.40
2022-07-29T18:20:12.577Z,2.30
2022-07-29T18:22:39.185Z,2.50
2022-07-29T18:25:05.840Z,2.38
2022-07-29T18:27:34.033Z,2.72
2022-07-29T18:30:04.855Z,1.77
2022-07-29T18:32:32.024Z,2.45
2022-07-29T18:35:05.225Z,2.30
2022-07-29T18:38:01.080Z,2.13
2022-07-29T18:40:21.000Z,2.40
2022-07-29T18:42:48.869Z,2.17
2022-07-29T18:45:22.885Z,2.50
2022-07-29T18:47:56.677Z,2.22
2022-07-29T18:50:29.896Z,2.55
2022-07-29T18:53:03.476Z,2.28
2022-07-29T18:55:33.112Z,2.45
2022-07-29T18:58:03.962Z,2.08
2022-07-29T19:00:30.713Z,2.42
2022-07-29T19:02:57.519Z,2.05
2022-07-29T19:05:27.842Z,2.60
2022-07-29T19:07:56.128Z,2.60
2022-07-29T19:10:22.784Z,2.35
2022-07-29T19:12:49.851Z,2.70
2022-07-29T19:15:20.251Z,2.53
2022-07-29T19:17:49.636Z,2.90
2022-07-29T19:20:17.293Z,2.72
2022-07-29T19:22:44.601Z,2.70
2022-07-29T19:25:11.961Z,6.03
2022-07-29T19:27:38.483Z,7.55
2022-07-29T19:30:09.952Z,14.93
2022-07-29T19:32:37.679Z,13.85
2022-07-29T19:35:23.661Z,11.57
2022-07-29T19:37:51.464Z,9.80
2022-07-29T19:40:18.299Z,8.05
2022-07-29T19:42:45.028Z,8.57
2022-07-29T19:45:13.864Z,8.00
2022-07-29T19:47:41.366Z,8.32
2022-07-29T19:50:08.544Z,15.85
2022-07-29T19:52:36.410Z,27.17
2022-07-29T19:55:07.532Z,13.82
2022-07-29T19:57:40.550Z,12.82
2022-07-29T20:00:07.914Z,16.00
2022-07-29T20:02:38.181Z,18.25
2022-07-29T20:05:06.657Z,16.27
2022-07-29T20:07:33.194Z,9.15
2022-07-29T20:09:59.740Z,24.25
2022-07-29T20:12:26.326Z,20.40
2022-07-29T20:14:54.254Z,13.90
2022-07-29T20:17:22.320Z,9.60
2022-07-29T20:19:49.817Z,8.13
2022-07-29T20:22:21.202Z,6.18
2022-07-29T20:24:48.192Z,4.95
2022-07-29T20:27:14.761Z,4.45
2022-07-29T20:29:41.380Z,4.35
2022-07-29T20:32:07.955Z,4.13
2022-07-29T20:34:34.463Z,4.18
2022-07-29T20:37:02.655Z,4.25
2022-07-29T20:39:29.529Z,4.13
2022-07-29T20:41:56.354Z,4.07
2022-07-29T20:44:24.240Z,9.35
2022-07-29T20:46:50.860Z,7.85
2022-07-29T20:49:17.499Z,7.00
2022-07-29T20:51:44.293Z,10.40
2022-07-29T20:54:11.105Z,9.30
2022-07-29T20:56:38.161Z,5.70
2022-07-29T20:59:04.701Z,6.03
2022-07-29T21:01:32.422Z,6.28
2022-07-29T21:03:59.000Z,4.80
2022-07-29T21:06:25.737Z,4.88
2022-07-29T21:08:52.289Z,9.75
2022-07-29T21:11:18.805Z,8.55
2022-07-29T21:14:05.317Z,8.48
2022-07-29T21:16:33.596Z,5.80
2022-07-29T21:19:00.135Z,5.88
2022-07-29T21:21:26.875Z,6.45
2022-07-29T21:23:53.441Z,5.90
2022-07-29T21:26:20.020Z,5.70
2022-07-29T21:28:46.545Z,5.78
2022-07-29T21:31:17.185Z,5.80
2022-07-29T21:33:44.997Z,5.65
2022-07-29T21:36:42.770Z,9.77
2022-07-29T21:38:58.753Z,15.77
2022-07-29T21:41:25.528Z,14.55
2022-07-29T21:43:52.219Z,13.00
2022-07-29T21:46:21.392Z,9.38
2022-07-29T21:48:51.248Z,9.00
2022-07-29T21:51:17.821Z,9.75
2022-07-29T21:53:44.344Z,8.63
2022-07-29T21:56:14.945Z,6.50
2022-07-29T21:58:41.854Z,5.68
2022-07-29T22:01:08.453Z,7.57
2022-07-29T22:03:35.083Z,7.35
2022-07-29T22:06:01.594Z,7.00
2022-07-29T22:08:28.129Z,7.57
2022-07-29T22:10:54.747Z,6.25
2022-07-29T22:13:21.446Z,5.80
2022-07-29T22:15:48.436Z,5.85
2022-07-29T22:18:20.909Z,8.18
2022-07-29T22:20:48.483Z,6.35
2022-07-29T22:23:15.085Z,6.07
2022-07-29T22:25:41.716Z,6.25
2022-07-29T22:28:08.233Z,5.68
2022-07-29T22:30:34.822Z,6.13
2022-07-29T22:33:01.392Z,5.80
2022-07-29T22:35:28.001Z,6.13
2022-07-29T22:37:54.556Z,5.53
2022-07-29T22:40:21.235Z,5.50
2022-07-29T22:42:47.851Z,6.40
2022-07-29T22:45:14.401Z,5.93
2022-07-29T22:47:48.280Z,6.10
2022-07-29T22:50:15.648Z,6.07
2022-07-29T22:52:42.224Z,6.47
2022-07-29T22:55:08.841Z,6.35
2022-07-29T22:57:35.463Z,6.00
2022-07-29T23:00:02.655Z,5.78
2022-07-29T23:02:29.261Z,6.13
2022-07-29T23:04:55.869Z,5.53
2022-07-29T23:07:22.705Z,5.80
2022-07-29T23:09:49.270Z,6.00
2022-07-29T23:12:15.794Z,5.43
2022-07-29T23:14:42.387Z,5.95
2022-07-29T23:17:08.929Z,5.32
2022-07-29T23:19:35.475Z,6.53
2022-07-29T23:22:01.968Z,5.45
2022-07-29T23:24:28.498Z,5.88
2022-07-29T23:26:55.024Z,5.55
2022-07-29T23:29:21.611Z,5.90
2022-07-29T23:31:48.493Z,6.10
2022-07-29T23:34:15.103Z,6.70
2022-07-29T23:36:42.455Z,6.18
2022-07-29T23:39:13.114Z,6.30
2022-07-29T23:41:39.672Z,6.72
2022-07-29T23:44:06.336Z,6.38
2022-07-29T23:46:33.827Z,6.90
2022-07-29T23:49:00.875Z,6.47
2022-07-29T23:51:29.421Z,6.10
2022-07-29T23:53:58.232Z,5.78
2022-07-29T23:56:25.834Z,6.35
2022-07-29T23:58:53.290Z,6.22
